Time;durP1;ratioP1;P1;durP2;ratioP2;P2;SDS_P1;SDS_P2;PMS_P1;PMS_P2;Temp;Humidity;BMP_temperature;BMP_pressure;BME280_temperature;BME280_humidity;BME280_pressure;Samples;Min_cycle;Max_cycle;Signal;HPM_P1;HPM_P2
2023/06/22 00:02:34;;;;;;;1.20;1.10;;;22.70;59.20;;;;;;8299409;28;20104;-52
2023/06/22 00:06:35;;;;;;;1.27;0.90;;;22.60;59.20;;;;;;8296970;28;20036;-51
2023/06/22 00:10:36;;;;;;;1.48;1.10;;;22.60;59.10;;;;;;8297576;28;20050;-52
2023/06/22 00:14:36;;;;;;;0.85;0.82;;;22.70;59.10;;;;;;8296620;28;20113;-50
2023/06/22 00:18:37;;;;;;;1.35;1.25;;;22.70;59.10;;;;;;8296368;28;20045;-51
2023/06/22 00:22:38;;;;;;;1.20;1.08;;;22.70;59.10;;;;;;8295593;28;20034;-51
2023/06/22 00:26:39;;;;;;;;;;;22.70;59.10;;;;;;8294693;28;20092;-52
2023/06/22 00:30:39;;;;;;;1.10;1.00;;;22.70;59.10;;;;;;8264208;28;20429;-52
2023/06/22 00:34:40;;;;;;;1.08;1.00;;;22.70;59.20;;;;;;8263150;28;20031;-51
2023/06/22 00:38:41;;;;;;;1.05;0.90;;;22.60;59.10;;;;;;8264855;28;20045;-51
2023/06/22 00:42:42;;;;;;;1.10;1.00;;;22.70;59.10;;;;;;8263852;28;20038;-52
2023/06/22 00:46:43;;;;;;;1.15;1.05;;;22.70;59.10;;;;;;8264848;28;20040;-52
2023/06/22 00:50:44;;;;;;;0.80;0.80;;;22.70;59.10;;;;;;8263499;28;20141;-52
2023/06/22 00:54:45;;;;;;;1.58;1.00;;;22.60;59.10;;;;;;8265551;28;20034;-51
2023/06/22 00:58:47;;;;;;;1.27;1.00;;;22.70;59.10;;;;;;8283217;28;20041;-51
2023/06/22 01:02:51;;;;;;;1.27;1.10;;;22.70;59.10;;;;;;8297086;28;20049;-53
2023/06/22 01:07:04;;;;;;;1.40;1.30;;;22.60;59.10;;;;;;8295246;28;20026;-52
2023/06/22 01:11:32;;;;;;;1.33;1.10;;;22.70;59.10;;;;;;8295189;28;20061;-49
2023/06/22 01:15:53;;;;;;;2.08;1.08;;;22.70;59.20;;;;;;8296466;28;20089;-50
2023/06/22 01:19:55;;;;;;;1.40;0.98;;;22.60;59.20;;;;;;8296375;28;20030;-49
2023/06/22 01:24:14;;;;;;;1.00;0.90;;;22.60;59.20;;;;;;8294916;28;20117;-51
2023/06/22 01:28:42;;;;;;;1.20;0.98;;;22.60;59.20;;;;;;8280879;28;20034;-51
2023/06/22 01:32:43;;;;;;;1.17;1.00;;;22.60;59.20;;;;;;8262561;28;20041;-52
2023/06/22 01:36:44;;;;;;;1.30;1.20;;;22.60;59.20;;;;;;8263134;28;20050;-49
2023/06/22 01:40:44;;;;;;;;;;;22.60;59.10;;;;;;8263428;28;20038;-51
2023/06/22 01:44:46;;;;;;;0.80;0.70;;;22.60;59.10;;;;;;8262310;28;19917;-52
2023/06/22 01:48:47;;;;;;;1.02;0.88;;;22.60;59.10;;;;;;8269662;28;20025;-52
2023/06/22 01:52:48;;;;;;;1.23;1.10;;;22.60;59.10;;;;;;8268769;28;20037;-52
2023/06/22 01:56:49;;;;;;;1.55;0.93;;;22.70;59.10;;;;;;8270285;28;20034;-52
2023/06/22 02:01:11;;;;;;;1.13;1.02;;;22.60;59.60;;;;;;8268459;28;20038;-52
2023/06/22 02:05:15;;;;;;;1.30;1.15;;;22.70;59.10;;;;;;8268664;28;20448;-50
2023/06/22 02:09:18;;;;;;;1.17;1.08;;;22.60;59.10;;;;;;8269981;28;20043;-51
2023/06/22 02:13:19;;;;;;;1.15;0.98;;;22.70;59.10;;;;;;8268168;28;20039;-51
2023/06/22 02:17:20;;;;;;;1.30;0.88;;;22.60;59.10;;;;;;8269097;28;20570;-52
2023/06/22 02:21:21;;;;;;;1.10;1.00;;;22.60;59.10;;;;;;8267782;28;20401;-51
2023/06/22 02:25:22;;;;;;;1.42;0.90;;;22.60;59.10;;;;;;8268952;28;20041;-50
2023/06/22 02:29:23;;;;;;;0.70;0.70;;;22.60;59.10;;;;;;8268054;28;20027;-50
2023/06/22 02:33:23;;;;;;;1.30;1.20;;;22.60;59.10;;;;;;8267567;28;20046;-51
2023/06/22 02:37:25;;;;;;;1.23;1.10;;;22.60;59.20;;;;;;8267634;28;20044;-51
2023/06/22 02:41:25;;;;;;;;;;;22.60;59.20;;;;;;8268756;28;20049;-51
2023/06/22 02:45:26;;;;;;;1.20;0.97;;;22.60;59.20;;;;;;8267779;28;19910;-52
2023/06/22 02:49:26;;;;;;;0.95;0.90;;;22.60;59.20;;;;;;8267460;28;20034;-52
2023/06/22 02:53:27;;;;;;;1.20;1.10;;;22.60;59.20;;;;;;8267863;28;20069;-52
2023/06/22 02:57:28;;;;;;;1.17;0.98;;;22.60;59.20;;;;;;8275683;28;20057;-51
2023/06/22 03:01:30;;;;;;;1.35;1.25;;;22.60;59.10;;;;;;8299804;28;20069;-51
2023/06/22 03:05:32;;;;;;;1.27;1.08;;;22.60;59.10;;;;;;8298783;28;20451;-52
2023/06/22 03:09:33;;;;;;;0.88;0.88;;;22.60;59.10;;;;;;8299342;28;20066;-51
2023/06/22 03:13:33;;;;;;;1.08;0.95;;;22.60;59.10;;;;;;8298075;28;20160;-51
2023/06/22 03:17:36;;;;;;;1.13;1.02;;;22.60;59.10;;;;;;8299410;28;20741;-52
2023/06/22 03:21:41;;;;;;;2.25;0.80;;;22.60;59.20;;;;;;8298900;28;20026;-52
2023/06/22 03:25:44;;;;;;;1.20;1.10;;;22.60;59.10;;;;;;8299334;28;20036;-52
2023/06/22 03:29:45;;;;;;;1.15;1.00;;;22.60;59.10;;;;;;8272847;28;20045;-51
2023/06/22 03:33:45;;;;;;;1.30;0.90;;;22.60;59.10;;;;;;8266091;28;20032;-51
2023/06/22 03:37:46;;;;;;;1.77;1.02;;;22.60;59.10;;;;;;8267674;28;20046;-52
2023/06/22 03:41:46;;;;;;;1.30;1.02;;;22.60;59.10;;;;;;8265914;28;20042;-51
2023/06/22 03:45:47;;;;;;;1.00;0.90;;;22.60;59.10;;;;;;8266557;28;20041;-52
2023/06/22 03:49:48;;;;;;;1.17;0.80;;;22.60;59.10;;;;;;8265243;28;20117;-50
2023/06/22 03:53:48;;;;;;;1.13;0.90;;;22.60;59.10;;;;;;8266815;28;20041;-51
2023/06/22 03:57:49;;;;;;;1.38;1.00;;;22.60;59.20;;;;;;8265571;28;20141;-51
2023/06/22 04:01:50;;;;;;;1.15;1.05;;;22.60;59.20;;;;;;8266447;28;20065;-52
2023/06/22 04:05:51;;;;;;;1.23;1.13;;;22.60;59.20;;;;;;8265793;28;20030;-52
2023/06/22 04:09:51;;;;;;;1.27;1.17;;;22.60;59.20;;;;;;8263161;28;20050;-52
2023/06/22 04:13:52;;;;;;;0.98;0.88;;;22.50;59.20;;;;;;8265831;28;20066;-51
2023/06/22 04:17:55;;;;;;;0.93;0.82;;;22.60;59.20;;;;;;8264328;28;20554;-52
2023/06/22 04:21:56;;;;;;;1.17;1.08;;;22.60;59.20;;;;;;8265747;28;20436;-50
2023/06/22 04:25:57;;;;;;;0.73;0.70;;;22.60;59.20;;;;;;8264295;28;20074;-51
2023/06/22 04:30:00;;;;;;;1.35;1.25;;;22.60;59.20;;;;;;8265707;28;20038;-52
2023/06/22 04:34:05;;;;;;;1.50;0.85;;;22.60;59.20;;;;;;8264158;28;20546;-52
2023/06/22 04:38:07;;;;;;;1.00;0.90;;;22.60;59.10;;;;;;8265563;28;20412;-51
2023/06/22 04:42:07;;;;;;;1.05;0.95;;;22.60;59.10;;;;;;8264177;28;20476;-51
2023/06/22 04:46:08;;;;;;;1.02;0.93;;;22.60;59.20;;;;;;8264223;28;20435;-52
2023/06/22 04:50:09;;;;;;;1.23;0.98;;;22.60;59.10;;;;;;8264741;28;20073;-51
2023/06/22 04:54:10;;;;;;;1.75;0.93;;;22.60;59.10;;;;;;8263378;28;20084;-52
2023/06/22 04:58:12;;;;;;;1.25;1.00;;;22.60;59.10;;;;;;8279852;28;20034;-52
2023/06/22 05:02:13;;;;;;;1.00;0.85;;;22.60;59.10;;;;;;8295677;28;20073;-52
2023/06/22 05:06:14;;;;;;;0.80;0.80;;;22.60;59.10;;;;;;8297057;28;20042;-51
2023/06/22 05:10:15;;;;;;;1.25;1.15;;;22.60;59.10;;;;;;8295587;28;20057;-52
2023/06/22 05:14:16;;;;;;;0.82;0.80;;;22.60;59.10;;;;;;8295428;28;20038;-51
2023/06/22 05:18:16;;;;;;;1.20;0.98;;;22.60;59.20;;;;;;8294698;28;20065;-51
2023/06/22 05:22:17;;;;;;;1.13;0.80;;;22.60;59.20;;;;;;8296422;28;20037;-52
2023/06/22 05:26:19;;;;;;;1.17;1.00;;;22.60;59.50;;;;;;8295837;28;20148;-51
2023/06/22 05:30:20;;;;;;;1.08;1.00;;;22.50;59.20;;;;;;8295534;28;20112;-50
2023/06/22 05:34:20;;;;;;;0.82;0.80;;;22.60;59.20;;;;;;8296589;28;20026;-51
2023/06/22 05:38:21;;;;;;;1.38;1.20;;;22.60;59.20;;;;;;8295049;28;20037;-50
2023/06/22 05:42:22;;;;;;;1.15;0.93;;;22.60;59.10;;;;;;8296363;28;20033;-49
2023/06/22 05:46:23;;;;;;;1.10;0.93;;;22.60;59.20;;;;;;8293793;28;20471;-49
2023/06/22 05:50:23;;;;;;;;;;;22.60;59.20;;;;;;8296782;28;20048;-50
2023/06/22 05:54:24;;;;;;;1.70;1.10;;;22.60;59.10;;;;;;8295123;28;19917;-51
2023/06/22 05:58:25;;;;;;;1.42;1.05;;;22.60;59.10;;;;;;8295433;28;20430;-51
2023/06/22 06:02:25;;;;;;;1.08;0.98;;;22.60;59.20;;;;;;8294963;28;20037;-50
2023/06/22 06:06:28;;;;;;;0.80;0.80;;;22.60;59.20;;;;;;8296622;28;20026;-52
2023/06/22 06:10:32;;;;;;;0.82;0.70;;;22.60;59.10;;;;;;8295435;28;20046;-51
2023/06/22 06:14:32;;;;;;;1.48;0.90;;;22.60;59.20;;;;;;8294029;28;20022;-52
2023/06/22 06:18:33;;;;;;;1.45;1.00;;;22.60;59.10;;;;;;8293479;28;20032;-51
2023/06/22 06:22:33;;;;;;;1.45;1.30;;;22.60;59.10;;;;;;8292127;28;20115;-51
2023/06/22 06:26:35;;;;;;;1.38;0.90;;;22.60;59.10;;;;;;8293661;28;20084;-50
2023/06/22 06:30:37;;;;;;;1.10;0.73;;;22.60;59.20;;;;;;8294272;28;20030;-51
2023/06/22 06:34:37;;;;;;;0.85;0.80;;;22.60;59.70;;;;;;8299906;28;20104;-50
2023/06/22 06:38:38;;;;;;;0.90;0.85;;;22.60;59.20;;;;;;8300095;28;20029;-51
2023/06/22 06:42:41;;;;;;;1.52;1.10;;;22.60;59.20;;;;;;8300994;28;20065;-52
2023/06/22 06:46:42;;;;;;;0.85;0.75;;;22.60;59.20;;;;;;8300560;28;20159;-51
2023/06/22 06:50:43;;;;;;;1.17;0.90;;;22.50;59.10;;;;;;8300942;28;20038;-51
2023/06/22 06:54:44;;;;;;;1.05;0.82;;;22.60;59.20;;;;;;8300898;28;20163;-51
2023/06/22 06:58:45;;;;;;;0.88;0.88;;;22.60;59.30;;;;;;8280076;28;20050;-50
2023/06/22 07:02:48;;;;;;;1.05;0.95;;;22.50;59.10;;;;;;8266988;28;20054;-52
2023/06/22 07:06:48;;;;;;;1.27;0.70;;;22.50;59.20;;;;;;8266879;28;20069;-51
2023/06/22 07:10:49;;;;;;;1.38;0.90;;;22.50;59.20;;;;;;8267521;28;20046;-52
2023/06/22 07:14:51;;;;;;;1.08;0.98;;;22.50;59.10;;;;;;8266619;28;20034;-51
2023/06/22 07:18:52;;;;;;;1.38;1.10;;;22.60;59.20;;;;;;8267727;28;20069;-51
2023/06/22 07:22:53;;;;;;;1.27;1.10;;;22.60;59.20;;;;;;8266276;28;20126;-51
2023/06/22 07:26:54;;;;;;;0.95;0.82;;;22.60;59.20;;;;;;8268947;28;20041;-52
2023/06/22 07:30:54;;;;;;;1.38;1.10;;;22.60;59.10;;;;;;8266395;28;20034;-49
2023/06/22 07:34:55;;;;;;;0.70;0.70;;;22.60;59.20;;;;;;8266400;28;20041;-52
2023/06/22 07:38:56;;;;;;;1.35;1.05;;;22.60;59.10;;;;;;8267049;28;20113;-51
2023/06/22 07:42:56;;;;;;;1.00;0.90;;;22.60;59.10;;;;;;8265427;28;20499;-50
2023/06/22 07:46:57;;;;;;;0.80;0.80;;;22.60;59.10;;;;;;8266771;28;20037;-53
2023/06/22 07:50:58;;;;;;;1.00;0.85;;;22.60;59.10;;;;;;8265685;28;20034;-53
2023/06/22 07:54:58;;;;;;;1.10;0.80;;;22.60;59.10;;;;;;8266415;28;20062;-51
2023/06/22 07:59:00;;;;;;;0.93;0.80;;;22.60;59.20;;;;;;8287068;28;20042;-52
2023/06/22 08:03:04;;;;;;;1.00;0.95;;;22.60;59.20;;;;;;8298595;28;20026;-51
2023/06/22 08:07:05;;;;;;;0.90;0.80;;;22.50;59.20;;;;;;8297871;28;20037;-52
2023/06/22 08:11:06;;;;;;;0.82;0.75;;;22.60;59.20;;;;;;8297591;28;20503;-50
2023/06/22 08:15:07;;;;;;;0.98;0.88;;;22.60;59.20;;;;;;8297656;28;20026;-50
2023/06/22 08:19:08;;;;;;;1.02;0.88;;;22.50;59.10;;;;;;8298215;28;20531;-53
2023/06/22 08:23:09;;;;;;;1.17;1.08;;;22.50;59.10;;;;;;8298589;28;20369;-51
2023/06/22 08:27:11;;;;;;;0.93;0.82;;;22.50;59.10;;;;;;8290453;28;20041;-52
2023/06/22 08:31:13;;;;;;;0.98;0.80;;;22.50;59.10;;;;;;8265395;28;20030;-51
2023/06/22 08:35:14;;;;;;;1.25;0.90;;;22.60;59.10;;;;;;8264219;28;20031;-53
2023/06/22 08:39:15;;;;;;;0.88;0.60;;;22.50;59.10;;;;;;8265502;28;20097;-51
2023/06/22 08:43:16;;;;;;;2.15;1.20;;;22.60;59.10;;;;;;8263737;28;20444;-50
2023/06/22 08:47:16;;;;;;;0.80;0.80;;;22.60;59.10;;;;;;8264848;28;20038;-51
2023/06/22 08:51:17;;;;;;;1.92;1.05;;;22.60;59.10;;;;;;8264167;28;20034;-52
2023/06/22 08:55:18;;;;;;;1.05;0.95;;;22.60;59.10;;;;;;8263658;28;20039;-52
2023/06/22 08:59:18;;;;;;;1.00;0.75;;;22.60;59.10;;;;;;8264106;28;20031;-52
2023/06/22 09:03:20;;;;;;;0.90;0.90;;;22.60;59.10;;;;;;8263320;28;20038;-51
2023/06/22 09:07:24;;;;;;;1.83;0.90;;;22.60;59.10;;;;;;8264386;28;20034;-51
2023/06/22 09:11:25;;;;;;;1.40;1.00;;;22.60;59.10;;;;;;8262016;28;20042;-52
2023/06/22 09:15:26;;;;;;;1.08;0.98;;;22.60;59.10;;;;;;8263182;28;20037;-51
2023/06/22 09:19:26;;;;;;;0.80;0.80;;;22.60;59.10;;;;;;8262661;28;20408;-51
2023/06/22 09:23:27;;;;;;;1.67;1.20;;;22.50;59.10;;;;;;8263880;28;20124;-51
2023/06/22 09:27:28;;;;;;;1.33;0.93;;;22.60;59.10;;;;;;8263574;28;20042;-51
2023/06/22 09:31:29;;;;;;;1.27;1.05;;;22.60;59.20;;;;;;8264586;28;20038;-52
2023/06/22 09:35:29;;;;;;;1.35;0.88;;;22.60;59.20;;;;;;8263429;28;20490;-51
2023/06/22 09:39:30;;;;;;;1.05;0.90;;;22.50;59.10;;;;;;8263278;28;20092;-52
2023/06/22 09:43:32;;;;;;;1.33;0.98;;;22.60;59.20;;;;;;8264151;28;20428;-52
2023/06/22 09:47:33;;;;;;;0.85;0.80;;;22.60;59.20;;;;;;8262570;28;20444;-52
2023/06/22 09:51:33;;;;;;;0.70;0.70;;;22.50;59.10;;;;;;8264010;28;20108;-52
2023/06/22 09:55:34;;;;;;;0.93;0.80;;;22.60;59.10;;;;;;8262779;28;20034;-51
2023/06/22 09:59:34;;;;;;;0.95;0.90;;;22.60;59.10;;;;;;8264127;28;20046;-51
2023/06/22 10:03:35;;;;;;;1.20;0.80;;;22.50;59.10;;;;;;8262799;28;20031;-51
2023/06/22 10:07:39;;;;;;;0.70;0.70;;;22.60;59.10;;;;;;8264144;28;20584;-51
2023/06/22 10:11:40;;;;;;;0.80;0.80;;;22.50;59.10;;;;;;8267530;28;20130;-51
2023/06/22 10:15:42;;;;;;;0.98;0.88;;;22.60;59.10;;;;;;8268948;28;20034;-53
2023/06/22 10:19:43;;;;;;;1.00;1.00;;;22.60;59.10;;;;;;8267918;28;20073;-49
2023/06/22 10:23:43;;;;;;;1.05;1.02;;;22.60;59.10;;;;;;8268929;28;20034;-51
2023/06/22 10:27:45;;;;;;;0.68;0.68;;;22.60;59.10;;;;;;8269679;28;20030;-52
2023/06/22 10:31:45;;;;;;;1.52;1.42;;;22.60;59.10;;;;;;8267945;28;20412;-52
2023/06/22 10:35:46;;;;;;;0.98;0.90;;;22.60;59.10;;;;;;8268919;28;20049;-52
2023/06/22 10:39:46;;;;;;;1.10;1.00;;;22.60;59.10;;;;;;8267757;28;20038;-51
2023/06/22 10:43:47;;;;;;;0.82;0.82;;;22.60;59.10;;;;;;8268642;28;20035;-51
2023/06/22 10:47:48;;;;;;;1.10;0.88;;;22.60;59.10;;;;;;8250028;28;20041;-52
2023/06/22 10:51:48;;;;;;;0.80;0.80;;;22.50;59.10;;;;;;8268607;28;20034;-52
2023/06/22 10:55:49;;;;;;;1.10;1.00;;;22.50;59.10;;;;;;8267558;28;20396;-50
2023/06/22 10:59:50;;;;;;;0.80;0.80;;;22.50;59.10;;;;;;8296240;28;20116;-51
2023/06/22 11:03:50;;;;;;;1.02;0.93;;;22.60;59.10;;;;;;8300043;28;20022;-51
2023/06/22 11:07:51;;;;;;;1.23;0.98;;;22.50;59.10;;;;;;8299288;28;20062;-52
2023/06/22 11:11:55;;;;;;;1.00;0.80;;;22.50;59.10;;;;;;8300107;28;20034;-52
2023/06/22 11:15:56;;;;;;;1.02;0.90;;;22.50;59.10;;;;;;8298905;28;20037;-52
2023/06/22 11:19:57;;;;;;;0.70;0.60;;;22.60;59.10;;;;;;8299718;28;20026;-51
2023/06/22 11:24:01;;;;;;;0.80;0.80;;;22.50;59.10;;;;;;8298727;28;20110;-53
2023/06/22 11:28:05;;;;;;;1.02;0.70;;;22.60;59.10;;;;;;8286263;28;20034;-51
2023/06/22 11:32:07;;;;;;;1.08;0.98;;;22.60;59.10;;;;;;8266325;28;20050;-51
2023/06/22 11:36:07;;;;;;;1.10;1.00;;;22.50;59.10;;;;;;8266420;28;20122;-51
2023/06/22 11:40:09;;;;;;;1.65;1.00;;;22.60;59.10;;;;;;8265413;28;20504;-52
2023/06/22 11:44:09;;;;;;;1.85;0.82;;;22.60;59.30;;;;;;8266253;28;20038;-50
2023/06/22 11:48:10;;;;;;;1.20;1.10;;;22.50;59.00;;;;;;8266771;28;20042;-53
2023/06/22 11:52:11;;;;;;;0.98;0.90;;;22.60;59.10;;;;;;8265424;28;20030;-52
2023/06/22 11:56:11;;;;;;;0.98;0.88;;;22.60;59.00;;;;;;8265422;28;20566;-52
2023/06/22 12:00:17;;;;;;;1.00;0.88;;;22.60;59.00;;;;;;8265539;28;20034;-50
2023/06/22 12:04:18;;;;;;;1.05;0.70;;;22.60;59.10;;;;;;8266367;28;20050;-52
2023/06/22 12:08:19;;;;;;;1.10;1.00;;;22.60;59.10;;;;;;8263553;28;20042;-51
2023/06/22 12:12:19;;;;;;;1.13;1.02;;;22.60;59.10;;;;;;8266014;28;20049;-52
2023/06/22 12:16:21;;;;;;;0.73;0.73;;;22.50;59.10;;;;;;8265339;28;20042;-51
2023/06/22 12:20:22;;;;;;;0.80;0.80;;;22.50;59.10;;;;;;8265059;28;20472;-52
2023/06/22 12:24:22;;;;;;;0.73;0.70;;;22.60;59.20;;;;;;8265517;28;20431;-51
2023/06/22 12:28:23;;;;;;;0.85;0.80;;;22.60;59.10;;;;;;8281617;28;20037;-52
2023/06/22 12:32:25;;;;;;;0.75;0.70;;;22.60;59.10;;;;;;8279484;28;20038;-53
2023/06/22 12:36:26;;;;;;;0.82;0.82;;;22.50;59.00;;;;;;8296554;28;20114;-52
2023/06/22 12:40:26;;;;;;;1.17;1.08;;;22.60;59.10;;;;;;8297716;28;20045;-51
2023/06/22 12:44:27;;;;;;;2.15;1.10;;;22.60;59.10;;;;;;8296344;28;20510;-51
2023/06/22 12:48:28;;;;;;;0.80;0.80;;;22.60;59.10;;;;;;8297696;28;20034;-52
2023/06/22 12:52:31;;;;;;;0.95;0.80;;;22.50;59.00;;;;;;8295858;28;20046;-51
2023/06/22 12:56:32;;;;;;;0.82;0.82;;;22.60;59.10;;;;;;8296611;28;20037;-51
2023/06/22 13:00:32;;;;;;;0.90;0.80;;;22.60;59.10;;;;;;8264016;28;20070;-51
2023/06/22 13:04:33;;;;;;;1.02;0.80;;;22.60;59.10;;;;;;8263918;28;20066;-51
2023/06/22 13:08:33;;;;;;;0.80;0.80;;;22.60;59.10;;;;;;8264295;28;20057;-50
2023/06/22 13:12:34;;;;;;;0.60;0.60;;;22.60;59.00;;;;;;8263377;28;20042;-51
2023/06/22 13:16:35;;;;;;;0.82;0.70;;;22.60;59.10;;;;;;8264361;28;20031;-51
2023/06/22 13:20:35;;;;;;;2.47;0.82;;;22.60;59.10;;;;;;8263008;28;20046;-51
2023/06/22 13:24:36;;;;;;;0.90;0.77;;;22.60;59.00;;;;;;8264222;28;20508;-51
2023/06/22 13:28:37;;;;;;;0.90;0.80;;;22.60;59.10;;;;;;8281727;28;20049;-52
2023/06/22 13:32:37;;;;;;;1.00;0.85;;;22.60;59.10;;;;;;8296888;28;20045;-52
2023/06/22 13:36:38;;;;;;;0.90;0.80;;;22.60;59.10;;;;;;8295346;28;20042;-51
2023/06/22 13:40:39;;;;;;;1.10;0.90;;;22.50;59.10;;;;;;8295978;28;20072;-52
2023/06/22 13:44:39;;;;;;;0.85;0.80;;;22.50;59.10;;;;;;8300420;28;20491;-50
2023/06/22 13:48:40;;;;;;;1.20;1.10;;;22.50;59.10;;;;;;8302093;28;20084;-52
2023/06/22 13:52:41;;;;;;;0.73;0.70;;;22.60;59.10;;;;;;8302821;28;20041;-51
2023/06/22 13:56:41;;;;;;;0.90;0.90;;;22.60;59.10;;;;;;8298856;28;20460;-50
2023/06/22 14:00:42;;;;;;;0.90;0.80;;;22.50;59.00;;;;;;8269922;28;20041;-51
2023/06/22 14:04:43;;;;;;;1.42;0.93;;;22.50;59.00;;;;;;8268841;28;20038;-51
2023/06/22 14:08:43;;;;;;;1.27;0.98;;;22.60;59.00;;;;;;8270404;28;20516;-50
2023/06/22 14:12:44;;;;;;;1.45;0.90;;;22.60;59.00;;;;;;8267389;28;20516;-51
2023/06/22 14:16:45;;;;;;;1.35;0.80;;;22.60;59.00;;;;;;8267535;28;20038;-49
2023/06/22 14:20:47;;;;;;;1.35;0.90;;;22.60;59.00;;;;;;8267159;28;20030;-49
2023/06/22 14:24:48;;;;;;;2.88;1.23;;;22.60;59.00;;;;;;8268774;28;20046;-51
2023/06/22 14:28:52;;;;;;;;;;;22.60;59.00;;;;;;8289728;28;20068;-51
2023/06/22 14:32:52;;;;;;;1.33;1.00;;;22.60;59.00;;;;;;8301068;28;19905;-50
2023/06/22 14:36:53;;;;;;;1.10;1.00;;;22.60;59.00;;;;;;8301703;28;20041;-53
2023/06/22 14:40:54;;;;;;;1.30;1.20;;;22.60;59.00;;;;;;8299844;28;20030;-52
2023/06/22 14:44:54;;;;;;;1.75;1.15;;;22.60;59.00;;;;;;8301081;28;20034;-53
2023/06/22 14:48:55;;;;;;;1.10;1.00;;;22.60;59.00;;;;;;8299838;28;20034;-51
2023/06/22 14:52:56;;;;;;;1.00;0.90;;;22.60;59.00;;;;;;8300424;28;20038;-53
2023/06/22 14:56:56;;;;;;;1.38;0.90;;;22.60;59.00;;;;;;8299600;28;20030;-52
2023/06/22 15:00:57;;;;;;;1.08;0.90;;;22.50;59.00;;;;;;8300638;28;20565;-51
2023/06/22 15:04:57;;;;;;;2.45;0.90;;;22.60;59.10;;;;;;8299939;28;20034;-53
2023/06/22 15:08:58;;;;;;;1.25;0.90;;;22.50;59.00;;;;;;8299643;28;20060;-51
2023/06/22 15:12:59;;;;;;;1.13;0.95;;;22.60;59.00;;;;;;8298590;28;20084;-51
2023/06/22 15:16:59;;;;;;;1.70;1.13;;;22.60;59.00;;;;;;8299617;28;20038;-51
2023/06/22 15:21:01;;;;;;;2.05;1.10;;;22.60;59.00;;;;;;8300077;28;20403;-51
2023/06/22 15:25:03;;;;;;;1.65;0.80;;;22.60;59.00;;;;;;8298525;28;20104;-50
2023/06/22 15:29:03;;;;;;;1.88;0.88;;;22.60;59.00;;;;;;8299868;28;20037;-51
2023/06/22 15:33:04;;;;;;;0.95;0.82;;;22.60;59.00;;;;;;8298482;28;20109;-52
2023/06/22 15:37:05;;;;;;;1.70;1.13;;;22.60;59.00;;;;;;8299644;28;20091;-50
2023/06/22 15:41:06;;;;;;;1.52;0.98;;;22.60;59.00;;;;;;8298214;28;20038;-52
2023/06/22 15:45:07;;;;;;;1.40;1.00;;;22.50;59.00;;;;;;8299444;28;20030;-51
2023/06/22 15:49:07;;;;;;;;;;;22.60;59.00;;;;;;8314300;28;20046;-50
2023/06/22 15:53:09;;;;;;;1.33;0.95;;;22.60;59.00;;;;;;8297183;28;19952;-53
2023/06/22 15:57:12;;;;;;;0.75;0.70;;;22.50;59.00;;;;;;8298918;28;20049;-51
2023/06/22 16:01:13;;;;;;;1.95;1.30;;;22.60;59.00;;;;;;8297123;28;20048;-52
2023/06/22 16:05:14;;;;;;;0.98;0.90;;;22.50;58.90;;;;;;8298598;28;20052;-50
2023/06/22 16:09:15;;;;;;;;;;;22.50;59.00;;;;;;8296341;28;20615;-52
2023/06/22 16:13:15;;;;;;;1.37;1.00;;;22.60;59.00;;;;;;8298333;28;19909;-53
2023/06/22 16:17:16;;;;;;;0.77;0.70;;;22.60;59.00;;;;;;8312263;28;20432;-52
2023/06/22 16:21:17;;;;;;;1.42;0.90;;;22.50;59.00;;;;;;8313449;28;20041;-52
2023/06/22 16:25:17;;;;;;;1.20;1.00;;;22.50;59.00;;;;;;8296665;28;20034;-49
2023/06/22 16:29:18;;;;;;;0.77;0.70;;;22.50;59.00;;;;;;8298318;28;20042;-53
2023/06/22 16:33:19;;;;;;;0.70;0.70;;;22.60;59.00;;;;;;8312257;28;20034;-51
2023/06/22 16:37:20;;;;;;;1.00;0.90;;;22.60;59.00;;;;;;8297326;28;20034;-51
2023/06/22 16:41:22;;;;;;;1.35;1.00;;;22.60;59.00;;;;;;8297520;28;20036;-51
2023/06/22 16:45:23;;;;;;;1.10;1.00;;;22.60;59.00;;;;;;8296071;28;20538;-51
2023/06/22 16:49:23;;;;;;;1.02;0.88;;;22.60;59.00;;;;;;8297270;28;20085;-52
2023/06/22 16:53:24;;;;;;;1.02;0.93;;;22.60;59.00;;;;;;8296070;28;20507;-51
2023/06/22 16:57:25;;;;;;;;;;;22.60;59.00;;;;;;8297734;28;20117;-52
2023/06/22 17:01:26;;;;;;;1.47;1.10;;;22.60;59.00;;;;;;8296157;28;19909;-51
2023/06/22 17:05:27;;;;;;;0.93;0.73;;;22.60;59.00;;;;;;8297166;28;20073;-52
2023/06/22 17:09:29;;;;;;;0.65;0.57;;;22.50;58.90;;;;;;8295627;28;20411;-50
2023/06/22 17:13:29;;;;;;;1.10;0.90;;;22.60;59.00;;;;;;8296611;28;20030;-51
2023/06/22 17:17:30;;;;;;;1.17;0.75;;;22.60;59.00;;;;;;8295620;28;20476;-51
2023/06/22 17:21:33;;;;;;;1.10;1.00;;;22.60;59.00;;;;;;8296173;28;20038;-52
2023/06/22 17:25:34;;;;;;;1.77;0.90;;;22.60;59.00;;;;;;8296718;28;20065;-51
2023/06/22 17:29:35;;;;;;;0.80;0.80;;;22.60;59.00;;;;;;8310397;28;20030;-52
2023/06/22 17:33:38;;;;;;;0.88;0.88;;;22.60;59.00;;;;;;8296286;28;20688;-52
2023/06/22 17:37:48;;;;;;;1.05;0.80;;;22.60;59.00;;;;;;8294975;28;20078;-52
2023/06/22 17:41:50;;;;;;;1.00;0.90;;;22.60;59.10;;;;;;8296540;28;20025;-52
2023/06/22 17:45:51;;;;;;;1.02;0.90;;;22.50;59.10;;;;;;8295649;28;20057;-50
2023/06/22 17:49:51;;;;;;;1.77;1.38;;;22.60;59.10;;;;;;8295408;28;20030;-51
2023/06/22 17:53:52;;;;;;;1.55;1.10;;;22.60;59.10;;;;;;8295417;28;20484;-52
2023/06/22 17:57:58;;;;;;;1.13;0.80;;;22.60;59.10;;;;;;8295594;28;20535;-51
2023/06/22 18:02:07;;;;;;;1.35;0.90;;;22.50;59.00;;;;;;8295983;28;20377;-52
2023/06/22 18:06:08;;;;;;;1.33;0.88;;;22.60;59.10;;;;;;8294786;28;20041;-52
2023/06/22 18:10:10;;;;;;;1.35;0.80;;;22.50;59.00;;;;;;8295744;28;20089;-51
2023/06/22 18:14:13;;;;;;;1.17;1.00;;;22.60;59.10;;;;;;8294417;28;20476;-51
2023/06/22 18:18:14;;;;;;;1.00;0.90;;;22.60;59.10;;;;;;8296533;28;20117;-52
2023/06/22 18:22:15;;;;;;;1.20;1.10;;;22.60;59.10;;;;;;8295220;28;20034;-52
2023/06/22 18:26:16;;;;;;;0.90;0.70;;;22.60;59.00;;;;;;8295206;28;20042;-52
2023/06/22 18:30:17;;;;;;;1.05;0.80;;;22.60;59.00;;;;;;8298820;28;20050;-50
2023/06/22 18:34:18;;;;;;;;;;;22.60;59.00;;;;;;8300643;28;20034;-52
2023/06/22 18:38:19;;;;;;;1.30;0.90;;;22.50;59.00;;;;;;8301556;28;19906;-51
2023/06/22 18:42:20;;;;;;;0.70;0.70;;;22.60;59.00;;;;;;8300087;28;20033;-51
2023/06/22 18:46:31;;;;;;;2.03;0.82;;;22.60;59.00;;;;;;8301117;28;20073;-51
2023/06/22 18:50:37;;;;;;;;;;;22.60;59.00;;;;;;8300218;28;20061;-51
2023/06/22 18:54:48;;;;;;;0.77;0.75;;;22.60;59.00;;;;;;8300832;28;20365;-51
2023/06/22 18:58:56;;;;;;;0.68;0.68;;;22.50;59.00;;;;;;8300542;28;20006;-51
2023/06/22 19:02:59;;;;;;;1.20;0.80;;;22.50;59.00;;;;;;8299518;28;20026;-50
2023/06/22 19:07:00;;;;;;;1.00;0.80;;;22.50;59.00;;;;;;8300575;28;20117;-52
2023/06/22 19:11:13;;;;;;;0.80;0.80;;;22.50;59.10;;;;;;8298943;28;20050;-52
2023/06/22 19:15:14;;;;;;;0.85;0.63;;;22.50;59.00;;;;;;8300171;28;20026;-53
2023/06/22 19:19:15;;;;;;;1.00;0.80;;;22.50;59.10;;;;;;8299196;28;20037;-51
2023/06/22 19:23:25;;;;;;;2.95;0.75;;;22.50;59.00;;;;;;8315348;28;20052;-50
2023/06/22 19:27:29;;;;;;;1.02;0.77;;;22.50;59.00;;;;;;8300111;28;20042;-52
2023/06/22 19:31:31;;;;;;;1.02;0.80;;;22.50;59.00;;;;;;8298267;28;20034;-51
2023/06/22 19:35:32;;;;;;;0.98;0.88;;;22.50;59.00;;;;;;8299766;28;20060;-51
2023/06/22 19:39:36;;;;;;;1.48;0.90;;;22.50;59.00;;;;;;8297886;28;20116;-51
2023/06/22 19:43:38;;;;;;;0.80;0.80;;;22.50;59.00;;;;;;8300019;28;20026;-50
2023/06/22 19:47:39;;;;;;;0.90;0.90;;;22.60;59.00;;;;;;8298077;28;20022;-52
2023/06/22 19:51:39;;;;;;;1.08;0.70;;;22.50;59.00;;;;;;8299109;28;20068;-52
2023/06/22 19:55:41;;;;;;;1.13;0.73;;;22.50;59.00;;;;;;8298163;28;20476;-52
2023/06/22 19:59:44;;;;;;;0.77;0.68;;;22.50;59.00;;;;;;8298426;28;20088;-52
2023/06/22 20:03:45;;;;;;;1.25;0.73;;;22.60;59.00;;;;;;8298769;28;20056;-51
2023/06/22 20:07:45;;;;;;;0.60;0.60;;;22.50;59.00;;;;;;8297347;28;20057;-52
2023/06/22 20:11:46;;;;;;;0.93;0.80;;;22.60;59.00;;;;;;8298674;28;20045;-51
2023/06/22 20:15:48;;;;;;;1.17;0.80;;;22.50;59.00;;;;;;8295988;28;20038;-52
2023/06/22 20:19:53;;;;;;;0.80;0.60;;;22.50;59.00;;;;;;8313666;28;20048;-51
2023/06/22 20:23:53;;;;;;;1.10;0.85;;;22.50;59.00;;;;;;8296969;28;20041;-50
2023/06/22 20:27:55;;;;;;;0.60;0.60;;;22.50;59.00;;;;;;8298178;28;20042;-51
2023/06/22 20:32:06;;;;;;;0.50;0.50;;;22.50;59.10;;;;;;8296683;28;20038;-51
2023/06/22 20:36:07;;;;;;;1.25;0.90;;;22.50;59.10;;;;;;8297215;28;20097;-53
2023/06/22 20:40:11;;;;;;;;;;;22.50;59.00;;;;;;8297101;28;20045;-51
2023/06/22 20:44:12;;;;;;;1.30;0.88;;;22.50;59.00;;;;;;8295086;28;19909;-51
2023/06/22 20:48:13;;;;;;;0.98;0.55;;;22.50;59.00;;;;;;8297586;28;20032;-52
2023/06/22 20:52:14;;;;;;;0.65;0.65;;;22.50;59.00;;;;;;8296353;28;20038;-51
2023/06/22 20:56:15;;;;;;;0.68;0.60;;;22.50;59.00;;;;;;8295902;28;20608;-51
2023/06/22 21:00:16;;;;;;;0.60;0.60;;;22.50;59.00;;;;;;8296097;28;20100;-51
2023/06/22 21:04:17;;;;;;;0.80;0.77;;;22.50;59.00;;;;;;8279575;28;20452;-52